Time;durP1;ratioP1;P1;durP2;ratioP2;P2;SDS_P1;SDS_P2;PMS_P1;PMS_P2;Temp;Humidity;BMP_temperature;BMP_pressure;BME280_temperature;BME280_humidity;BME280_pressure;Samples;Min_cycle;Max_cycle;Signal;HPM_P1;HPM_P2
2021/04/24 00:02:10;;;;;;;7.77;5.07;;;9.60;99.90;;;;;;5102366;28;20245;-83
2021/04/24 00:04:37;;;;;;;10.10;4.53;;;9.60;99.90;;;;;;5096182;28;20407;-83
2021/04/24 00:07:04;;;;;;;11.23;5.47;;;9.60;99.90;;;;;;5111624;28;20408;-84
2021/04/24 00:09:30;;;;;;;8.80;5.07;;;9.60;99.90;;;;;;5120400;28;20398;-83
2021/04/24 00:11:56;;;;;;;5.93;4.67;;;9.40;99.90;;;;;;5102054;28;20400;-83
2021/04/24 00:14:21;;;;;;;6.57;4.60;;;9.50;99.90;;;;;;5120628;27;20425;-83
2021/04/24 00:16:47;;;;;;;5.73;4.77;;;9.50;99.90;;;;;;5101419;28;20266;-83
2021/04/24 00:19:13;;;;;;;6.70;4.30;;;9.40;99.90;;;;;;5101357;28;20599;-83
2021/04/24 00:21:39;;;;;;;6.63;3.77;;;9.30;99.90;;;;;;5131668;27;20172;-83
2021/04/24 00:24:05;;;;;;;5.80;4.70;;;9.20;99.90;;;;;;5105243;27;20177;-83
2021/04/24 00:26:31;;;;;;;4.77;4.27;;;9.30;99.90;;;;;;5140630;27;20165;-83
2021/04/24 00:28:57;;;;;;;8.30;5.70;;;9.20;99.90;;;;;;5122523;27;20391;-83
2021/04/24 00:31:23;;;;;;;6.70;4.97;;;9.10;99.90;;;;;;5122365;27;20624;-83
2021/04/24 00:33:54;;;;;;;7.10;5.77;;;9.00;99.90;;;;;;5118126;28;20818;-83
2021/04/24 00:36:20;;;;;;;6.10;4.30;;;9.10;99.90;;;;;;5085485;28;20193;-83
2021/04/24 00:38:45;;;;;;;9.33;4.03;;;9.00;99.90;;;;;;5119831;28;20396;-83
2021/04/24 00:41:11;;;;;;;13.60;5.47;;;9.00;99.90;;;;;;5108018;28;20209;-83
2021/04/24 00:43:37;;;;;;;6.53;5.00;;;9.00;99.90;;;;;;5121204;28;20164;-83
2021/04/24 00:46:11;;;;;;;7.23;4.93;;;8.80;99.90;;;;;;5121579;28;20474;-83
2021/04/24 00:48:38;;;;;;;6.27;4.07;;;8.80;99.90;;;;;;5122552;28;20562;-84
2021/04/24 00:51:05;;;;;;;5.60;4.60;;;8.80;99.90;;;;;;5140341;28;20403;-82
2021/04/24 00:53:31;;;;;;;5.67;4.20;;;8.80;99.90;;;;;;5143383;27;20479;-83
2021/04/24 00:55:57;;;;;;;5.33;4.50;;;8.80;99.90;;;;;;5127100;27;20961;-84
2021/04/24 00:58:25;;;;;;;11.63;4.10;;;8.80;99.90;;;;;;5126889;27;20157;-84
2021/04/24 01:00:51;;;;;;;8.90;4.67;;;8.80;99.90;;;;;;5145406;27;21017;-84
2021/04/24 01:03:17;;;;;;;5.40;4.63;;;8.70;99.90;;;;;;5127352;27;20407;-84
2021/04/24 01:05:44;;;;;;;4.93;4.37;;;8.70;99.90;;;;;;5145627;27;20859;-83
2021/04/24 01:08:10;;;;;;;7.53;4.97;;;8.70;99.90;;;;;;5146210;27;20193;-83
2021/04/24 01:10:39;;;;;;;4.50;3.80;;;8.60;99.90;;;;;;5144834;27;20422;-83
2021/04/24 01:13:06;;;;;;;6.40;4.13;;;8.60;99.90;;;;;;5144723;27;20435;-83
2021/04/24 01:15:33;;;;;;;4.20;3.40;;;8.60;99.90;;;;;;5144408;27;20448;-83
2021/04/24 01:17:59;;;;;;;7.57;4.63;;;8.50;99.90;;;;;;5144367;27;20394;-83
2021/04/24 01:20:25;;;;;;;4.40;4.00;;;8.20;99.90;;;;;;5144088;27;20411;-83
2021/04/24 01:22:51;;;;;;;7.07;4.50;;;8.10;99.90;;;;;;5144437;27;20939;-83
2021/04/24 01:25:20;;;;;;;4.67;3.90;;;8.00;99.90;;;;;;5126583;27;20433;-84
2021/04/24 01:27:49;;;;;;;6.87;3.93;;;8.10;99.90;;;;;;5146130;27;20450;-83
2021/04/24 01:30:17;;;;;;;4.73;4.20;;;8.00;99.90;;;;;;5127444;27;20391;-83
2021/04/24 01:32:42;;;;;;;10.00;5.03;;;8.10;99.90;;;;;;5132256;27;20520;-83
2021/04/24 01:35:13;;;;;;;16.90;5.53;;;8.10;99.90;;;;;;5124056;27;20488;-83
2021/04/24 01:37:39;;;;;;;4.63;4.03;;;8.00;99.90;;;;;;5124374;27;20506;-83
2021/04/24 01:40:11;;;;;;;9.37;5.77;;;8.10;99.90;;;;;;5123832;27;20686;-83
2021/04/24 01:42:37;;;;;;;4.80;3.50;;;8.10;99.90;;;;;;5122582;27;20444;-83
2021/04/24 01:45:07;;;;;;;6.07;4.73;;;8.00;99.90;;;;;;5122082;28;20414;-82
2021/04/24 01:47:34;;;;;;;6.73;4.20;;;8.00;99.90;;;;;;5103782;28;20200;-83
2021/04/24 01:50:00;;;;;;;6.07;5.20;;;7.90;99.90;;;;;;5086595;28;20411;-83
2021/04/24 01:52:36;;;;;;;14.20;5.83;;;7.80;99.90;;;;;;5099850;28;20968;-82
2021/04/24 01:55:06;;;;;;;4.00;3.60;;;7.80;99.90;;;;;;5091720;28;20170;-82
2021/04/24 01:57:32;;;;;;;4.90;4.50;;;7.90;99.90;;;;;;5118624;28;20389;-83
2021/04/24 01:59:58;;;;;;;7.53;4.20;;;7.90;99.90;;;;;;5121736;28;20418;-83
2021/04/24 02:02:24;;;;;;;5.23;3.80;;;7.80;99.90;;;;;;5121695;28;20164;-82
2021/04/24 02:04:52;;;;;;;8.10;4.13;;;7.80;99.90;;;;;;5102056;28;20511;-82
2021/04/24 02:07:18;;;;;;;5.17;4.30;;;7.90;99.90;;;;;;5086553;28;20507;-83
2021/04/24 02:09:44;;;;;;;7.40;3.90;;;7.90;99.90;;;;;;5103432;28;20403;-83
2021/04/24 02:12:12;;;;;;;6.03;4.10;;;7.80;99.90;;;;;;5121822;28;20891;-83
2021/04/24 02:14:43;;;;;;;8.90;6.30;;;7.80;99.90;;;;;;5102507;28;20174;-83
2021/04/24 02:17:12;;;;;;;4.87;4.30;;;7.70;99.90;;;;;;5121314;28;20384;-83
2021/04/24 02:19:41;;;;;;;10.10;4.90;;;7.70;99.90;;;;;;5121927;28;20388;-82
2021/04/24 02:22:08;;;;;;;7.43;5.20;;;7.70;99.90;;;;;;5104612;28;20395;-83
2021/04/24 02:24:39;;;;;;;7.50;5.77;;;7.60;99.90;;;;;;5133204;28;20418;-82
2021/04/24 02:27:06;;;;;;;5.77;4.43;;;7.60;99.90;;;;;;5122212;28;20442;-83
2021/04/24 02:29:32;;;;;;;10.50;4.97;;;7.40;99.90;;;;;;5122047;28;20445;-83
2021/04/24 02:31:58;;;;;;;4.90;3.50;;;7.40;99.90;;;;;;5121636;28;20391;-83
2021/04/24 02:34:24;;;;;;;8.53;4.83;;;7.20;99.90;;;;;;5112581;28;20240;-83
2021/04/24 02:36:50;;;;;;;7.40;5.63;;;7.30;99.90;;;;;;5133480;28;20396;-83
2021/04/24 02:39:16;;;;;;;7.80;5.13;;;7.20;99.90;;;;;;5129068;28;20164;-84
2021/04/24 02:41:41;;;;;;;6.67;4.20;;;7.30;99.90;;;;;;5115408;27;20574;-83
2021/04/24 02:44:07;;;;;;;11.00;3.90;;;7.30;99.90;;;;;;5123658;27;20169;-84
2021/04/24 02:46:34;;;;;;;6.87;4.10;;;7.40;99.90;;;;;;5123015;27;20249;-83
2021/04/24 02:49:00;;;;;;;4.83;4.17;;;7.30;99.90;;;;;;5140599;27;20840;-84
2021/04/24 02:51:25;;;;;;;4.50;4.10;;;7.30;99.90;;;;;;5141998;27;20402;-83
2021/04/24 02:53:52;;;;;;;6.27;4.77;;;7.20;99.90;;;;;;5141866;27;20590;-84
2021/04/24 02:56:18;;;;;;;5.30;4.60;;;7.20;99.90;;;;;;5142164;27;20249;-83
2021/04/24 02:58:43;;;;;;;9.40;5.40;;;7.10;99.90;;;;;;5143838;27;20399;-83
2021/04/24 03:01:09;;;;;;;14.50;5.47;;;7.10;99.90;;;;;;5144070;27;20175;-83
2021/04/24 03:03:35;;;;;;;6.50;3.80;;;7.10;99.90;;;;;;5124888;27;20623;-82
2021/04/24 03:06:01;;;;;;;6.37;4.63;;;7.10;99.90;;;;;;5141266;27;20201;-82
2021/04/24 03:08:27;;;;;;;11.17;4.93;;;7.10;99.90;;;;;;5141457;27;20197;-82
2021/04/24 03:10:52;;;;;;;4.90;3.90;;;7.10;99.90;;;;;;5140937;27;20162;-84
2021/04/24 03:13:18;;;;;;;8.20;4.47;;;7.00;99.90;;;;;;5141709;27;20161;-83
2021/04/24 03:15:44;;;;;;;5.87;4.10;;;7.00;99.90;;;;;;5121861;27;20168;-83
2021/04/24 03:18:10;;;;;;;7.37;4.77;;;7.00;99.90;;;;;;5122485;27;20169;-83
2021/04/24 03:20:36;;;;;;;6.37;4.77;;;6.90;99.90;;;;;;5141319;27;20610;-83
2021/04/24 03:23:04;;;;;;;9.20;3.77;;;6.90;99.90;;;;;;5140103;27;20541;-83
2021/04/24 03:25:30;;;;;;;8.63;4.30;;;6.90;99.90;;;;;;5123082;27;20453;-83
2021/04/24 03:27:55;;;;;;;8.97;4.60;;;6.80;99.90;;;;;;5141270;27;20391;-84
2021/04/24 03:30:21;;;;;;;5.43;4.50;;;6.70;99.90;;;;;;5123160;27;20402;-83
2021/04/24 03:32:48;;;;;;;8.13;4.50;;;6.70;99.90;;;;;;5140423;27;20161;-83
2021/04/24 03:35:13;;;;;;;10.30;4.53;;;6.70;99.90;;;;;;5140505;27;20406;-83
2021/04/24 03:37:39;;;;;;;9.90;5.13;;;6.80;99.90;;;;;;5140609;27;20755;-82
2021/04/24 03:40:07;;;;;;;7.23;4.67;;;6.80;99.90;;;;;;5122143;27;20537;-82
2021/04/24 03:42:33;;;;;;;6.17;3.90;;;6.80;99.90;;;;;;5121945;27;20488;-83
2021/04/24 03:44:58;;;;;;;5.33;4.83;;;6.70;99.90;;;;;;5121793;27;20539;-83
2021/04/24 03:47:24;;;;;;;6.83;4.40;;;6.80;99.90;;;;;;5139872;27;20429;-83
2021/04/24 03:49:50;;;;;;;8.13;4.03;;;6.70;99.90;;;;;;5140567;27;20166;-82
2021/04/24 03:52:16;;;;;;;7.43;4.27;;;6.70;99.90;;;;;;5139326;27;20207;-83
2021/04/24 03:54:41;;;;;;;4.90;3.87;;;6.70;99.90;;;;;;5121538;27;20206;-82
2021/04/24 03:57:07;;;;;;;7.23;4.87;;;6.60;99.90;;;;;;5140383;27;20158;-82
2021/04/24 03:59:34;;;;;;;6.07;5.00;;;6.60;99.90;;;;;;5121415;27;20189;-83
2021/04/24 04:02:00;;;;;;;7.90;3.77;;;6.50;99.90;;;;;;5122190;27;20387;-83
2021/04/24 04:04:26;;;;;;;4.30;3.87;;;6.50;99.90;;;;;;5121090;27;20418;-83
2021/04/24 04:06:51;;;;;;;7.43;4.90;;;6.40;99.90;;;;;;5101088;28;20166;-83
2021/04/24 04:09:17;;;;;;;6.80;4.00;;;6.40;99.90;;;;;;5135547;27;20276;-82
2021/04/24 04:11:44;;;;;;;8.10;4.67;;;6.40;99.90;;;;;;5121345;27;20543;-82
2021/04/24 04:14:09;;;;;;;10.33;4.17;;;6.30;99.90;;;;;;5120826;27;20193;-83
2021/04/24 04:16:35;;;;;;;8.80;4.17;;;6.30;99.90;;;;;;5140303;27;20391;-83
2021/04/24 04:19:01;;;;;;;6.87;4.87;;;6.20;99.90;;;;;;5121501;27;20256;-83
2021/04/24 04:21:27;;;;;;;6.03;4.07;;;6.20;99.90;;;;;;5139786;27;20480;-83
2021/04/24 04:23:53;;;;;;;6.80;4.63;;;6.10;99.90;;;;;;5139747;27;20548;-83
2021/04/24 04:26:19;;;;;;;6.13;4.50;;;6.20;99.90;;;;;;5139357;27;20634;-83
2021/04/24 04:28:45;;;;;;;10.57;5.17;;;6.20;99.90;;;;;;5139568;27;20157;-82
2021/04/24 04:31:11;;;;;;;5.67;4.33;;;6.20;99.90;;;;;;5139583;27;20803;-83
2021/04/24 04:33:37;;;;;;;6.47;4.53;;;6.30;99.90;;;;;;5139224;27;20221;-83
2021/04/24 04:36:04;;;;;;;4.40;4.00;;;6.40;99.90;;;;;;5118518;28;20229;-83
2021/04/24 04:38:32;;;;;;;4.10;3.70;;;6.30;99.90;;;;;;5118556;28;20400;-82
2021/04/24 04:40:58;;;;;;;7.13;5.20;;;6.40;99.90;;;;;;5119988;28;20458;-83
2021/04/24 04:43:24;;;;;;;4.40;4.00;;;6.40;99.90;;;;;;5120807;28;20423;-83
2021/04/24 04:45:50;;;;;;;8.37;4.50;;;6.40;99.90;;;;;;5139171;28;20946;-83
2021/04/24 04:48:17;;;;;;;6.73;4.20;;;6.40;99.90;;;;;;5139190;28;20166;-83
2021/04/24 04:50:45;;;;;;;9.17;4.67;;;6.50;99.90;;;;;;5138797;28;20169;-82
2021/04/24 04:53:10;;;;;;;9.43;5.67;;;6.60;99.90;;;;;;5139129;28;20388;-83
2021/04/24 04:55:37;;;;;;;7.43;4.87;;;6.60;99.90;;;;;;5138895;28;20721;-83
2021/04/24 04:58:04;;;;;;;6.80;4.77;;;6.60;99.90;;;;;;5139069;28;20666;-83
2021/04/24 05:00:30;;;;;;;6.73;4.87;;;6.60;99.90;;;;;;5139231;28;20406;-83
2021/04/24 05:02:56;;;;;;;6.40;4.57;;;6.70;99.90;;;;;;5120545;28;20415;-83
2021/04/24 05:05:23;;;;;;;8.93;4.77;;;6.60;99.90;;;;;;5139252;28;20264;-83
2021/04/24 05:07:49;;;;;;;4.90;4.17;;;6.60;99.90;;;;;;5138546;28;20439;-83
2021/04/24 05:10:16;;;;;;;4.50;4.07;;;6.50;99.90;;;;;;5138950;28;20511;-83
2021/04/24 05:12:43;;;;;;;8.57;4.80;;;6.60;99.90;;;;;;5120505;28;20410;-82
2021/04/24 05:15:10;;;;;;;10.63;5.73;;;6.50;99.90;;;;;;5135799;27;20454;-83
2021/04/24 05:17:35;;;;;;;7.37;5.00;;;6.60;99.90;;;;;;5102410;28;20442;-83
2021/04/24 05:20:02;;;;;;;8.33;5.93;;;6.60;99.90;;;;;;5133698;27;20484;-83
2021/04/24 05:22:28;;;;;;;11.07;5.63;;;6.40;99.90;;;;;;5108814;28;20182;-83
2021/04/24 05:24:57;;;;;;;8.23;6.20;;;6.40;99.90;;;;;;5110306;27;20534;-83
2021/04/24 05:27:23;;;;;;;6.60;3.47;;;6.40;99.90;;;;;;5135976;27;20185;-83
2021/04/24 05:29:49;;;;;;;10.67;4.83;;;6.50;99.90;;;;;;5107753;27;20527;-83
2021/04/24 05:32:15;;;;;;;5.87;5.13;;;6.60;99.90;;;;;;5122650;27;20966;-83
2021/04/24 05:34:41;;;;;;;7.83;4.30;;;6.60;99.90;;;;;;5096574;28;20418;-83
2021/04/24 05:37:07;;;;;;;7.00;6.17;;;6.60;99.90;;;;;;5110736;28;20288;-83
2021/04/24 05:39:32;;;;;;;11.60;5.27;;;6.70;99.90;;;;;;5126029;27;20173;-83
2021/04/24 05:41:58;;;;;;;7.97;5.70;;;6.70;99.90;;;;;;5111200;27;20641;-83
2021/04/24 05:44:24;;;;;;;6.03;4.93;;;6.60;99.90;;;;;;5134770;27;20320;-83
2021/04/24 05:46:50;;;;;;;6.33;4.27;;;6.70;99.90;;;;;;5147957;27;20225;-83
2021/04/24 05:49:16;;;;;;;8.60;5.47;;;6.70;99.90;;;;;;5128578;27;20296;-83
2021/04/24 05:51:42;;;;;;;5.90;4.20;;;6.80;99.90;;;;;;5107925;27;20192;-84
2021/04/24 05:54:08;;;;;;;9.27;5.60;;;6.90;99.90;;;;;;5112036;28;20193;-82
2021/04/24 05:56:34;;;;;;;5.37;4.87;;;6.90;99.90;;;;;;5127692;27;20422;-83
2021/04/24 05:58:59;;;;;;;8.20;4.50;;;6.90;99.90;;;;;;5128624;27;20173;-83
2021/04/24 06:01:25;;;;;;;5.70;3.73;;;7.00;99.90;;;;;;5129039;27;20295;-82
2021/04/24 06:03:53;;;;;;;5.57;4.27;;;7.00;99.90;;;;;;5128535;27;20181;-83
2021/04/24 06:06:20;;;;;;;10.07;4.37;;;6.90;99.90;;;;;;5130869;27;20252;-83
2021/04/24 06:08:46;;;;;;;9.23;4.20;;;7.00;99.90;;;;;;5124292;27;20874;-82
2021/04/24 06:11:11;;;;;;;5.10;4.43;;;7.00;99.90;;;;;;5128826;27;20442;-84
2021/04/24 06:13:37;;;;;;;6.87;6.27;;;7.10;99.90;;;;;;5111054;27;20208;-83
2021/04/24 06:16:04;;;;;;;5.23;4.73;;;7.20;99.90;;;;;;5126538;27;20189;-83
2021/04/24 06:18:29;;;;;;;9.27;4.73;;;7.30;99.90;;;;;;5108684;27;20883;-83
2021/04/24 06:20:55;;;;;;;6.33;4.37;;;7.30;99.90;;;;;;5122948;27;20462;-83
2021/04/24 06:23:21;;;;;;;10.50;5.20;;;7.40;99.90;;;;;;5120461;27;20253;-83
2021/04/24 06:25:47;;;;;;;4.60;3.90;;;7.50;99.90;;;;;;5124840;27;20216;-83
2021/04/24 06:28:13;;;;;;;7.40;4.83;;;7.60;99.90;;;;;;5103859;27;20606;-83
2021/04/24 06:30:39;;;;;;;6.30;3.67;;;7.60;99.90;;;;;;5112542;27;20272;-83
2021/04/24 06:33:06;;;;;;;6.47;4.80;;;7.80;99.90;;;;;;5124258;27;20181;-83
2021/04/24 06:35:32;;;;;;;5.73;4.70;;;7.90;99.90;;;;;;5131561;27;20461;-83
2021/04/24 06:37:58;;;;;;;8.40;4.87;;;7.90;99.90;;;;;;5096726;27;20443;-83
2021/04/24 06:40:25;;;;;;;7.80;4.87;;;8.00;99.90;;;;;;5101096;27;20208;-83
2021/04/24 06:42:51;;;;;;;5.37;4.40;;;8.10;99.90;;;;;;5111162;27;20450;-83
2021/04/24 06:45:17;;;;;;;4.57;4.10;;;8.00;99.90;;;;;;5123735;27;20472;-83
2021/04/24 06:47:44;;;;;;;5.23;4.73;;;8.20;99.90;;;;;;5107652;27;20200;-82
2021/04/24 06:50:11;;;;;;;6.87;4.70;;;8.20;99.90;;;;;;5105436;27;20467;-81
2021/04/24 06:52:37;;;;;;;4.93;4.43;;;8.40;99.90;;;;;;5090093;27;20440;-83
2021/04/24 06:55:05;;;;;;;5.57;4.20;;;8.30;99.90;;;;;;5115780;27;20440;-82
2021/04/24 06:57:31;;;;;;;5.17;4.67;;;8.40;99.90;;;;;;5100488;27;20423;-83
2021/04/24 06:59:57;;;;;;;4.50;4.10;;;8.30;99.90;;;;;;5121270;27;20449;-84
2021/04/24 07:02:23;;;;;;;6.80;4.37;;;8.40;99.90;;;;;;5085627;27;20558;-83
2021/04/24 07:04:50;;;;;;;7.07;5.20;;;8.50;99.90;;;;;;5122252;27;20643;-83
2021/04/24 07:07:16;;;;;;;7.40;5.37;;;8.40;99.90;;;;;;5118101;27;20665;-83
2021/04/24 07:09:42;;;;;;;8.70;5.40;;;8.50;99.90;;;;;;5103154;27;20450;-83
2021/04/24 07:12:08;;;;;;;4.57;3.63;;;8.60;99.90;;;;;;5101723;27;20541;-83
2021/04/24 07:14:34;;;;;;;7.80;5.30;;;8.50;99.90;;;;;;5077862;27;20248;-82
2021/04/24 07:17:00;;;;;;;7.10;5.10;;;8.70;99.90;;;;;;5094804;27;20469;-83
2021/04/24 07:19:26;;;;;;;12.53;4.60;;;8.80;99.90;;;;;;5088238;27;20427;-82
2021/04/24 07:21:52;;;;;;;5.93;4.17;;;8.90;99.90;;;;;;5107868;27;20433;-82
2021/04/24 07:24:18;;;;;;;6.73;5.23;;;9.00;99.90;;;;;;5126858;27;20231;-82
2021/04/24 07:26:44;;;;;;;7.07;4.00;;;9.10;99.90;;;;;;5083758;27;20225;-83
2021/04/24 07:29:10;;;;;;;13.60;5.77;;;9.20;99.90;;;;;;5128500;27;20443;-84
2021/04/24 07:31:36;;;;;;;7.90;4.90;;;9.20;99.90;;;;;;5074704;27;20472;-83
2021/04/24 07:34:02;;;;;;;14.40;5.03;;;9.40;99.90;;;;;;5116250;27;20220;-83
2021/04/24 07:36:29;;;;;;;7.93;6.00;;;9.60;99.90;;;;;;5099527;27;20611;-83
2021/04/24 07:38:57;;;;;;;16.90;5.97;;;9.70;99.90;;;;;;5121715;27;20435;-84
2021/04/24 07:41:24;;;;;;;9.03;5.27;;;9.50;99.90;;;;;;5096416;28;20541;-84
2021/04/24 07:43:50;;;;;;;7.27;5.40;;;9.50;99.90;;;;;;5102228;27;20436;-84
2021/04/24 07:46:17;;;;;;;7.63;5.80;;;9.80;99.90;;;;;;5088261;28;20490;-84
2021/04/24 07:48:43;;;;;;;6.80;5.50;;;10.00;99.90;;;;;;5103500;28;20432;-84
2021/04/24 07:51:09;;;;;;;9.97;5.20;;;10.10;99.90;;;;;;5102770;27;20883;-84
2021/04/24 07:53:35;;;;;;;8.50;5.13;;;10.10;99.90;;;;;;5081018;28;20429;-83
2021/04/24 07:56:01;;;;;;;6.63;4.97;;;10.20;99.90;;;;;;5102710;28;20431;-83
2021/04/24 07:58:27;;;;;;;4.87;4.33;;;10.30;99.90;;;;;;5101570;28;20253;-84
2021/04/24 08:00:53;;;;;;;6.10;5.50;;;10.30;99.90;;;;;;5109152;27;20499;-82
2021/04/24 08:03:18;;;;;;;13.07;5.43;;;10.30;99.90;;;;;;5105578;28;20186;-84
2021/04/24 08:05:46;;;;;;;8.77;4.50;;;10.50;99.90;;;;;;5086189;28;20208;-83
2021/04/24 08:08:12;;;;;;;8.93;4.80;;;10.60;99.90;;;;;;5057742;28;20256;-84
2021/04/24 08:10:38;;;;;;;5.87;4.40;;;10.70;99.90;;;;;;5102931;27;20844;-83
2021/04/24 08:13:04;;;;;;;6.67;4.50;;;10.70;99.90;;;;;;5102974;28;20534;-83
2021/04/24 08:15:31;;;;;;;7.37;5.23;;;10.70;99.90;;;;;;5086963;28;20790;-83
2021/04/24 08:17:57;;;;;;;6.80;5.33;;;10.80;99.90;;;;;;5106014;27;20444;-84
2021/04/24 08:20:23;;;;;;;8.17;5.37;;;10.90;99.90;;;;;;5105151;28;20447;-84
2021/04/24 08:22:49;;;;;;;9.73;4.83;;;11.10;99.90;;;;;;5025653;28;20644;-84
2021/04/24 08:25:15;;;;;;;7.23;5.43;;;11.10;99.90;;;;;;5037419;28;20642;-84
2021/04/24 08:27:42;;;;;;;10.60;5.47;;;11.30;99.90;;;;;;5013383;28;20497;-82
2021/04/24 08:30:10;;;;;;;10.60;7.00;;;11.40;99.90;;;;;;5012299;28;20427;-84
2021/04/24 08:32:37;;;;;;;9.00;5.20;;;11.60;99.90;;;;;;5022639;28;20468;-83
2021/04/24 08:35:04;;;;;;;7.17;5.23;;;11.70;99.90;;;;;;5038737;28;20445;-83
2021/04/24 08:37:30;;;;;;;6.83;4.63;;;11.80;99.90;;;;;;5044137;28;20506;-83
2021/04/24 08:40:03;;;;;;;6.57;4.40;;;11.80;99.90;;;;;;5033105;28;20546;-85
2021/04/24 08:42:30;;;;;;;6.10;5.00;;;11.90;99.90;;;;;;5040851;28;20689;-84
2021/04/24 08:44:56;;;;;;;6.00;4.50;;;11.90;99.90;;;;;;5040027;28;20455;-84
2021/04/24 08:47:23;;;;;;;10.30;4.80;;;11.90;99.90;;;;;;5027495;28;20433;-84
2021/04/24 08:49:53;;;;;;;4.33;3.70;;;11.90;99.90;;;;;;5045634;28;20180;-83
2021/04/24 08:52:22;;;;;;;6.40;4.10;;;11.90;99.90;;;;;;5021274;28;20482;-83
2021/04/24 08:54:48;;;;;;;9.70;4.70;;;12.00;99.90;;;;;;5072823;27;20457;-85
2021/04/24 08:57:35;;;;;;;11.67;5.03;;;12.20;99.90;;;;;;5114535;28;20439;-83
2021/04/24 09:00:03;;;;;;;7.20;4.10;;;12.40;99.90;;;;;;5052077;28;20429;-83
2021/04/24 09:02:28;;;;;;;5.73;4.70;;;12.60;99.90;;;;;;5029148;28;20579;-85
2021/04/24 09:04:54;;;;;;;4.97;4.30;;;12.70;99.90;;;;;;5030324;28;20512;-83
2021/04/24 09:07:20;;;;;;;18.30;5.30;;;13.00;99.90;;;;;;5017889;28;20254;-83
2021/04/24 09:09:56;;;;;;;7.17;4.30;;;12.90;99.90;;;;;;5010349;28;20277;-86
2021/04/24 09:12:36;;;;;;;8.67;5.07;;;12.50;99.90;;;;;;4982739;28;20192;-83
2021/04/24 09:15:15;;;;;;;10.43;4.90;;;12.80;99.90;;;;;;5003216;28;20434;-84
2021/04/24 09:17:50;;;;;;;7.53;4.67;;;13.10;99.90;;;;;;5034496;28;23037;-83
2021/04/24 09:20:17;;;;;;;16.47;5.23;;;13.30;99.90;;;;;;4980892;28;20535;-83
2021/04/24 09:22:52;;;;;;;9.07;4.90;;;13.40;99.90;;;;;;5020482;28;20986;-84
2021/04/24 09:25:18;;;;;;;8.17;5.20;;;13.50;99.90;;;;;;5004737;28;20510;-83
2021/04/24 09:27:47;;;;;;;8.50;4.67;;;13.40;99.90;;;;;;5033253;28;20485;-83
2021/04/24 09:30:20;;;;;;;8.50;5.37;;;13.70;99.90;;;;;;5024880;28;20191;-84
2021/04/24 09:32:48;;;;;;;7.93;4.03;;;14.00;99.90;;;;;;5077108;28;20467;-83
2021/04/24 09:35:20;;;;;;;8.00;4.97;;;14.00;99.90;;;;;;5071022;28;20436;-84
2021/04/24 09:38:02;;;;;;;12.87;5.23;;;14.20;99.90;;;;;;5085992;28;20471;-83
2021/04/24 09:40:31;;;;;;;6.87;5.47;;;14.20;99.90;;;;;;5108378;27;20518;-85
2021/04/24 09:43:06;;;;;;;9.97;5.23;;;14.10;99.90;;;;;;5092780;28;20430;-81
2021/04/24 09:45:35;;;;;;;5.73;5.13;;;14.40;99.90;;;;;;5089295;28;20486;-84
2021/04/24 09:48:01;;;;;;;8.97;6.00;;;14.20;99.90;;;;;;5088511;27;20412;-81
2021/04/24 09:50:31;;;;;;;6.00;5.40;;;14.30;99.90;;;;;;5091491;28;20475;-83
2021/04/24 09:53:24;;;;;;;8.20;5.70;;;13.70;99.90;;;;;;5090116;28;20455;-85
2021/04/24 09:55:53;;;;;;;8.17;6.13;;;14.30;99.90;;;;;;5073651;28;20449;-85
2021/04/24 09:58:35;;;;;;;10.60;4.67;;;14.50;99.90;;;;;;5050448;28;20432;-84
2021/04/24 10:01:31;;;;;;;10.13;5.67;;;14.50;99.70;;;;;;5068967;28;20548;-84
2021/04/24 10:03:58;;;;;;;5.37;4.87;;;14.70;99.90;;;;;;5050825;28;20492;-84
2021/04/24 10:06:30;;;;;;;6.73;5.13;;;14.80;99.90;;;;;;5066920;28;20458;-83
2021/04/24 10:09:17;;;;;;;5.77;4.70;;;14.90;99.90;;;;;;5068965;28;20481;-84
2021/04/24 10:12:03;;;;;;;8.70;4.87;;;14.90;99.70;;;;;;5065314;28;20464;-83
2021/04/24 10:14:37;;;;;;;5.20;4.70;;;14.80;99.90;;;;;;5047393;28;20801;-84
2021/04/24 10:17:05;;;;;;;12.33;5.90;;;15.20;99.50;;;;;;5062585;28;20456;-84
2021/04/24 10:19:32;;;;;;;16.57;6.43;;;15.50;98.90;;;;;;5035501;28;20429;-83
2021/04/24 10:21:59;;;;;;;6.20;4.90;;;15.40;98.10;;;;;;5064315;28;20445;-83
2021/04/24 10:24:27;;;;;;;11.07;6.03;;;15.60;99.00;;;;;;5047871;28;20469;-83
2021/04/24 10:26:54;;;;;;;7.87;4.87;;;15.50;96.20;;;;;;5065469;28;20464;-84
2021/04/24 10:29:20;;;;;;;6.00;5.43;;;15.70;97.90;;;;;;5108374;28;20973;-84
2021/04/24 10:31:47;;;;;;;10.10;5.90;;;15.90;97.50;;;;;;5103202;27;20471;-84
2021/04/24 10:34:15;;;;;;;7.40;4.87;;;15.90;96.80;;;;;;5113412;27;20937;-84
2021/04/24 10:36:42;;;;;;;9.57;4.93;;;16.00;97.10;;;;;;5075274;28;20515;-83
2021/04/24 10:39:18;;;;;;;15.77;5.93;;;16.00;95.60;;;;;;5084975;28;20435;-84
2021/04/24 10:41:55;;;;;;;7.63;5.77;;;16.40;93.70;;;;;;5077500;28;20945;-83
2021/04/24 10:44:24;;;;;;;8.27;5.50;;;16.60;92.00;;;;;;5061764;28;20446;-84
2021/04/24 10:46:55;;;;;;;7.47;4.47;;;16.30;90.90;;;;;;5069365;28;20491;-83
2021/04/24 10:49:29;;;;;;;11.27;6.40;;;16.40;94.10;;;;;;5069702;28;20552;-84
2021/04/24 10:52:06;;;;;;;9.60;5.33;;;16.60;92.30;;;;;;5088112;28;21026;-84
2021/04/24 10:54:36;;;;;;;7.37;5.93;;;16.40;90.60;;;;;;5067367;28;20505;-84
2021/04/24 10:57:23;;;;;;;8.47;5.50;;;15.90;91.30;;;;;;5070320;28;20564;-84
2021/04/24 10:59:56;;;;;;;6.50;5.10;;;17.10;91.60;;;;;;5078936;28;20485;-86
2021/04/24 11:02:40;;;;;;;8.03;6.70;;;17.60;90.20;;;;;;5080005;28;20596;-84
2021/04/24 11:05:25;;;;;;;11.40;5.63;;;18.20;83.90;;;;;;5086223;28;20456;-85
2021/04/24 11:08:21;;;;;;;6.70;5.63;;;18.50;86.20;;;;;;5087476;28;20463;-84
2021/04/24 11:11:01;;;;;;;7.67;6.90;;;18.30;86.50;;;;;;5074584;28;20428;-83
2021/04/24 11:13:32;;;;;;;9.00;6.10;;;18.80;82.40;;;;;;5096692;27;20443;-84
2021/04/24 11:16:03;;;;;;;8.50;5.57;;;19.00;78.40;;;;;;5104588;27;20439;-85
2021/04/24 11:18:31;;;;;;;4.63;4.17;;;19.20;80.20;;;;;;5090700;28;20561;-84
2021/04/24 11:21:02;;;;;;;5.53;4.93;;;20.20;71.20;;;;;;5076381;28;20456;-85
2021/04/24 11:23:41;;;;;;;8.17;4.77;;;19.60;63.70;;;;;;5074327;28;20542;-84
2021/04/24 11:26:13;;;;;;;6.20;4.90;;;20.50;68.80;;;;;;5071552;28;20510;-84
2021/04/24 11:29:11;;;;;;;7.57;5.83;;;20.70;67.40;;;;;;5090068;27;20811;-84
2021/04/24 11:31:54;;;;;;;5.30;4.80;;;20.50;64.30;;;;;;5091173;28;20914;-84
2021/04/24 11:34:34;;;;;;;5.87;5.30;;;20.10;64.40;;;;;;5106712;28;20432;-85
2021/04/24 11:37:23;;;;;;;8.17;5.77;;;21.20;63.00;;;;;;5106108;28;20451;-84
2021/04/24 11:40:14;;;;;;;5.13;4.57;;;21.60;61.20;;;;;;5104438;28;20476;-84
2021/04/24 11:43:01;;;;;;;5.63;5.03;;;22.30;56.10;;;;;;5130882;27;20489;-83
2021/04/24 11:45:48;;;;;;;12.87;5.97;;;22.30;58.80;;;;;;5132344;27;20435;-84
2021/04/24 11:48:16;;;;;;;8.43;5.50;;;21.80;62.30;;;;;;5109121;27;20448;-84
2021/04/24 11:50:44;;;;;;;6.00;5.40;;;22.50;58.70;;;;;;5122090;27;20463;-84
2021/04/24 11:53:14;;;;;;;12.50;4.97;;;22.90;57.50;;;;;;5074974;27;20454;-83
2021/04/24 11:55:40;;;;;;;4.40;4.00;;;23.10;55.80;;;;;;5114535;27;20450;-85
2021/04/24 11:58:10;;;;;;;8.50;5.47;;;23.10;51.80;;;;;;5121128;27;20562;-84
2021/04/24 12:00:37;;;;;;;4.90;4.10;;;23.10;52.30;;;;;;5116452;27;20470;-85
2021/04/24 12:03:04;;;;;;;6.13;4.20;;;22.70;50.10;;;;;;5121258;27;20423;-83
2021/04/24 12:05:31;;;;;;;7.10;4.17;;;22.80;53.50;;;;;;5095106;28;20453;-83
2021/04/24 12:07:57;;;;;;;4.57;3.67;;;22.80;50.70;;;;;;5129310;27;20446;-85
2021/04/24 12:10:28;;;;;;;9.17;4.37;;;22.10;52.70;;;;;;5093093;27;20945;-85
2021/04/24 12:13:07;;;;;;;5.63;4.20;;;21.70;53.60;;;;;;5097907;27;20422;-83
2021/04/24 12:15:34;;;;;;;5.10;4.20;;;22.30;51.60;;;;;;5076474;28;20786;-82
2021/04/24 12:18:03;;;;;;;5.60;4.30;;;21.40;53.20;;;;;;5115117;27;20441;-85
2021/04/24 12:20:33;;;;;;;4.90;3.90;;;21.00;54.30;;;;;;5092179;27;20428;-84
2021/04/24 12:23:00;;;;;;;7.00;4.80;;;21.40;53.30;;;;;;5129853;27;20557;-84
2021/04/24 12:25:29;;;;;;;5.63;4.70;;;22.00;51.30;;;;;;5133529;27;20418;-84
2021/04/24 12:27:57;;;;;;;6.73;3.90;;;22.00;51.30;;;;;;5128641;27;20919;-84
2021/04/24 12:30:28;;;;;;;5.30;3.30;;;22.20;51.70;;;;;;5115560;27;20418;-83
2021/04/24 12:32:56;;;;;;;3.17;2.80;;;22.40;49.40;;;;;;5127066;27;21292;-84
2021/04/24 12:35:27;;;;;;;5.50;3.80;;;22.20;49.20;;;;;;5120037;27;20447;-83
2021/04/24 12:38:07;;;;;;;4.30;3.73;;;22.70;48.40;;;;;;5109380;28;21443;-84
2021/04/24 12:40:43;;;;;;;4.80;4.17;;;23.20;50.60;;;;;;5109262;27;20437;-84
2021/04/24 12:43:15;;;;;;;7.80;4.00;;;23.10;48.40;;;;;;5106223;28;20481;-85
2021/04/24 12:45:43;;;;;;;7.90;3.70;;;23.30;50.00;;;;;;5131655;27;20463;-83
2021/04/24 12:48:15;;;;;;;3.60;3.30;;;23.40;48.30;;;;;;5136370;27;20891;-86
2021/04/24 12:50:43;;;;;;;10.00;4.20;;;23.90;47.30;;;;;;5120813;27;20557;-84
2021/04/24 12:53:11;;;;;;;4.07;3.77;;;24.20;48.70;;;;;;5102124;28;20539;-84
2021/04/24 12:55:43;;;;;;;4.20;3.80;;;23.90;46.20;;;;;;5103668;27;20533;-84
2021/04/24 12:58:12;;;;;;;6.40;4.17;;;23.20;49.10;;;;;;5113568;28;20542;-84